Impacts TAF Board INFO
FOR SITUATIONAL AWARENESS. NOT TO BE USED FOR FLIGHT PLANNING PURPOSES.
IDs:

KATL - Atlanta/Hartsfield-J, GA, US

Issued at 0809 UTC 22 Jul 2018
Updated at 0815 UTC 22 Jul 2018
Potential Impact None Slight Moderate High
Time0752Z 22/09Z 22/10Z 22/11Z 22/12Z 22/13Z 22/14Z 22/15Z 22/16Z 22/17Z 22/18Z 22/19Z 22/20Z 22/21Z>>
Type OBS PRVL PRVL PRVL PRVL PRVL PRVL PRVL PRVL PRVL PRVL PRVL PRVL
  [PRB30]  
PRVL
  [PRB30]  
VIS 10 >6 >6 >6 >6 >6 >6 >6 >6 >6 >6 >6 >6
  [3]  
>6
  [3]  
CIG -- -- -- -- -- -- -- -- -- -- 45 45 45
  [30]  
45
  [30]  
Cover CLR SCT SCT SCT SCT SCT SCT SCT SCT SCT BKN BKN BKN
  [OVC]  
BKN
  [OVC]  
FltCat VFR VFR VFR VFR VFR VFR VFR VFR VFR VFR VFR VFR VFR
  [MVFR]  
VFR
  [MVFR]  
WX -- -- -- -- -- -- -- VCSH VCSH VCSH VCSH VCSH VCSH
  [TSRA]  
VCSH
  [TSRA]  
WDir 280 280 280 280 280 280 280 290 290 290 280 280 280
[280]
280
[280]
WSpd 5 6 6 6 6 6 6 9 9 9 10 10 10
  [10]  
10
  [10]  
WGst -- -- -- -- -- -- -- -- -- -- 20 20 20
  [20]  
20
  [20]  

Raw TAF
KATL 220809Z 2208/2312 28006KT P6SM SCT250
  FM221500 29009KT P6SM VCSH SCT035
  FM221800 28010G20KT P6SM VCSH BKN045
  PROB30 2220/2224 3SM TSRA OVC030CB
  FM230200 31006KT P6SM VCSH SCT040 BKN080
  FM230700 30005KT P6SM SCT035 SCT080


Raw METAR
KATL 220752Z 28005KT 10SM CLR 22/19 A2981 RMK AO2 SLP084 T02170194
KATL 220652Z 27006KT 10SM CLR 22/19 A2983 RMK AO2 SLP090 T02170194
KATL 220552Z 28008KT 10SM FEW120 FEW200 FEW250 22/19 A2984 RMK AO2 SLP093 T02220194 10272 20222 50001

METAR Board
Radar Display
Forecast Discussion

FOR SITUATIONAL AWARENESS. NOT TO BE USED FOR FLIGHT PLANNING PURPOSES.